Weather History for KSYF - March, 2013

Change the Weather History Date:

Tuesday, March 19, 2013

  Actual Average Record
Temperature  
Mean Temperature 38 °F -  
Max Temperature 53 °F 52 °F 55 °F (2015)
Min Temperature 23 °F 26 °F 23 °F (2013)
Degree Days  
Heating Degree Days 28    
Moisture  
Dew Point 13 °F    
Average Humidity 41    
Maximum Humidity 84    
Minimum Humidity 13    
Precipitation  
Precipitation 0.00 in - - ()
Sea Level Pressure  
Sea Level Pressure 30.11 in    
Wind  
Wind Speed 11 mph (NNE)    
Max Wind Speed 21 mph    
Max Gust Speed 30 mph    
Visibility 10 miles    
Events      
Averages and records for this station are not official NWS values.
T = Trace of Precipitation, MM = Missing Value Source: NWS Daily Summary

Daily Weather History Graph

Daily Weather History Graph

Search for Another Location

Airport or City:

Trip Planner

Search our weather history database for the weather conditions in past years. The results will help you decide how hot, cold, wet, or windy it might be!

Date:

Astronomy

Mar. 19, 2013 Rise Set
Actual Time 7:51 AM CDT 7:58 PM CDT
Civil Twilight 7:24 AM CDT 8:25 PM CDT
Nautical Twilight 6:53 AM CDT 8:56 PM CDT
Astronomical Twilight 6:21 AM CDT 9:29 PM CDT
Moon 12:44 PM CDT (3/19) 2:46 AM CDT (3/19)
Length of Visible Light 13h 00m
Length of Day
12h 06m
Waxing Crescent, 50% of the Moon is Illuminated
Mar 19
Waxing Crescent
Mar 19
First Quarter
Mar 27
Full
Apr 2
Last Quarter
Apr 10
New

Hourly Weather History & Observations

Time (CDT) Temp. Windchill Dew Point Humidity Pressure Visibility Wind Dir Wind Speed Gust Speed Precip Events Conditions
12:15 AM 37.9 °F 28.9 °F 12.9 °F 36% 29.93 in 10.0 mi ESE 16.1 mph 24.2 mph N/A   Scattered Clouds
12:35 AM 36.7 °F 26.6 °F 14.2 °F 40% 29.93 in 10.0 mi ESE 18.4 mph 24.2 mph N/A   Clear
12:55 AM 35.8 °F 25.4 °F 16.0 °F 45% 29.95 in 10.0 mi ESE 18.4 mph 24.2 mph N/A   Clear
1:15 AM 35.6 °F 28.0 °F 16.3 °F 46% 29.97 in 10.0 mi North 10.4 mph - N/A   Mostly Cloudy
1:35 AM 35.8 °F 26.5 °F 15.8 °F 44% 29.97 in 10.0 mi East 15.0 mph - N/A   Mostly Cloudy
1:55 AM 34.7 °F 27.5 °F 14.9 °F 44% 29.98 in 10.0 mi East 9.2 mph - N/A   Scattered Clouds
2:15 AM 34.2 °F 26.2 °F 14.7 °F 45% 29.99 in 10.0 mi East 10.4 mph - N/A   Mostly Cloudy
2:35 AM 33.8 °F 29.6 °F 14.9 °F 46% 30.01 in 10.0 mi NE 4.6 mph - N/A   Mostly Cloudy
2:55 AM 33.1 °F 23.9 °F 14.0 °F 46% 29.99 in 10.0 mi East 12.7 mph - N/A   Mostly Cloudy
3:15 AM 32.2 °F 25.8 °F 13.1 °F 45% 30.00 in 10.0 mi ENE 6.9 mph - N/A   Scattered Clouds
3:35 AM 31.3 °F 23.9 °F 13.3 °F 47% 30.01 in 10.0 mi East 8.1 mph - N/A   Scattered Clouds
3:55 AM 29.7 °F 22.8 °F 14.0 °F 52% 30.00 in 10.0 mi ESE 6.9 mph - N/A   Scattered Clouds
4:15 AM 30.9 °F 20.7 °F 13.5 °F 48% 29.99 in 10.0 mi ESE 13.8 mph - N/A   Scattered Clouds
4:35 AM 31.3 °F 21.1 °F 12.4 °F 46% 29.99 in 10.0 mi ESE 13.8 mph - N/A   Mostly Cloudy
4:55 AM 31.1 °F 21.4 °F 12.6 °F 46% 29.99 in 10.0 mi SE 12.7 mph 21.9 mph N/A   Mostly Cloudy
5:15 AM 29.8 °F 21.5 °F 12.6 °F 49% 30.00 in 10.0 mi SE 9.2 mph - N/A   Mostly Cloudy
5:35 AM 27.9 °F 18.4 °F 12.9 °F 54% 29.99 in 10.0 mi SSE 10.4 mph - N/A   Scattered Clouds
5:55 AM 25.9 °F 21.7 °F 12.9 °F 58% 30.01 in 10.0 mi South 3.5 mph - N/A   Clear
6:15 AM 25.2 °F 16.5 °F 12.6 °F 59% 30.00 in 10.0 mi SSE 8.1 mph - N/A   Clear
6:35 AM 23.9 °F 16.8 °F 12.0 °F 61% 30.01 in 10.0 mi SSW 5.8 mph - N/A   Scattered Clouds
6:55 AM 25.3 °F 16.0 °F 11.8 °F 57% 30.02 in 10.0 mi South 9.2 mph 16.1 mph N/A   Clear
7:15 AM 23.2 °F 15.0 °F 11.8 °F 62% 30.03 in 10.0 mi SSW 6.9 mph - N/A   Clear
7:35 AM 24.4 °F 13.5 °F 11.8 °F 59% 30.03 in 10.0 mi South 11.5 mph - N/A   Clear
7:55 AM 24.1 °F 14.4 °F 11.7 °F 59% 30.03 in 10.0 mi South 9.2 mph - N/A   Clear
8:15 AM 24.4 °F 13.5 °F 12.0 °F 59% 30.05 in 10.0 mi SSW 11.5 mph - N/A   Clear
8:35 AM 25.9 °F 18.2 °F 12.0 °F 56% 30.07 in 10.0 mi WSW 6.9 mph - N/A   Clear
8:55 AM 28.0 °F 18.6 °F 12.0 °F 51% 30.08 in 10.0 mi SSW 10.4 mph - N/A   Clear
9:15 AM 30.4 °F 21.0 °F 12.0 °F 47% 30.10 in 10.0 mi SW 11.5 mph 17.3 mph N/A   Clear
9:35 AM 32.0 °F 21.2 °F 13.1 °F 46% 30.10 in 10.0 mi SSW 16.1 mph - N/A   Clear
9:55 AM 33.1 °F 23.0 °F 14.5 °F 47% 30.10 in 10.0 mi SSW 15.0 mph - N/A   Clear
10:15 AM 35.2 °F 27.6 °F 15.3 °F 44% 30.12 in 10.0 mi SW 10.4 mph - N/A   Clear
10:35 AM 36.5 °F 33.9 °F 13.8 °F 39% 30.15 in 10.0 mi NW 3.5 mph - N/A   Clear
10:55 AM 36.9 °F 31.4 °F 13.6 °F 39% 30.15 in 10.0 mi North 6.9 mph - N/A   Clear
11:15 AM 37.6 °F 33.1 °F 12.9 °F 36% 30.14 in 10.0 mi NNE 5.8 mph - N/A   Clear
11:35 AM 38.7 °F 35.2 °F 12.6 °F 34% 30.14 in 10.0 mi ESE 4.6 mph - N/A   Clear
11:55 AM 40.1 °F 36.1 °F 12.6 °F 33% 30.15 in 10.0 mi NNE 5.8 mph - N/A   Clear
12:15 PM 40.8 °F 36.2 °F 12.0 °F 31% 30.15 in 10.0 mi North 6.9 mph - N/A   Clear
12:35 PM 41.4 °F - 12.0 °F 30% 30.15 in 10.0 mi Calm Calm - N/A   Clear
12:55 PM 42.3 °F 40.5 °F 12.4 °F 30% 30.15 in 10.0 mi North 3.5 mph - N/A   Clear
1:15 PM 42.8 °F 39.3 °F 11.8 °F 28% 30.15 in 10.0 mi NW 5.8 mph - N/A   Clear
1:35 PM 45.5 °F 40.3 °F 13.1 °F 27% 30.15 in 10.0 mi North 10.4 mph 17.3 mph N/A   Clear
1:55 PM 47.3 °F - 13.6 °F 26% 30.15 in 10.0 mi NNE 10.4 mph 16.1 mph N/A   Clear
2:15 PM 48.6 °F - 12.7 °F 24% 30.14 in 10.0 mi North 5.8 mph 18.4 mph N/A   Scattered Clouds
2:35 PM 50.2 °F - 9.5 °F 19% 30.14 in 10.0 mi North 8.1 mph 23.0 mph N/A   Clear
2:55 PM 50.0 °F - 9.3 °F 19% 30.14 in 10.0 mi North 10.4 mph 18.4 mph N/A   Scattered Clouds
3:15 PM 51.1 °F - 4.6 °F 15% 30.13 in 10.0 mi NNW 15.0 mph 21.9 mph N/A   Scattered Clouds
3:35 PM 51.4 °F - 6.3 °F 16% 30.13 in 10.0 mi NNW 12.7 mph 20.7 mph N/A   Scattered Clouds
3:55 PM 51.8 °F - 6.6 °F 16% 30.13 in 10.0 mi NNW 13.8 mph 29.9 mph N/A   Scattered Clouds
4:15 PM 52.9 °F - 5.9 °F 15% 30.12 in 10.0 mi North 15.0 mph 19.6 mph N/A   Scattered Clouds
4:35 PM 52.3 °F - 5.0 °F 15% 30.12 in 10.0 mi North 11.5 mph 18.4 mph N/A   Scattered Clouds
4:55 PM 52.3 °F - 4.3 °F 14% 30.12 in 10.0 mi North 9.2 mph 18.4 mph N/A   Clear
5:15 PM 52.0 °F - 3.7 °F 14% 30.12 in 10.0 mi NW 11.5 mph 18.4 mph N/A   Clear
5:35 PM 52.2 °F - 3.9 °F 14% 30.12 in 10.0 mi NNE 5.8 mph 17.3 mph N/A   Clear
5:55 PM 52.0 °F - 3.7 °F 14% 30.12 in 10.0 mi NW 4.6 mph - N/A   Clear
6:15 PM 52.0 °F - 2.7 °F 13% 30.12 in 10.0 mi NNW 5.8 mph 10.4 mph N/A   Clear
6:35 PM 51.8 °F - 3.0 °F 14% 30.12 in 10.0 mi NNE 11.5 mph - N/A   Clear
6:55 PM 50.2 °F - 9.5 °F 19% 30.14 in 10.0 mi North 20.7 mph 24.2 mph N/A   Clear
7:15 PM 48.4 °F - 9.9 °F 21% 30.15 in 10.0 mi North 13.8 mph - N/A   Clear
7:35 PM 46.8 °F - 10.2 °F 23% 30.17 in 10.0 mi North 10.4 mph - N/A   Clear
7:55 PM 44.2 °F 38.4 °F 11.8 °F 27% 30.18 in 10.0 mi North 11.5 mph - N/A   Clear
8:15 PM 42.6 °F 36.8 °F 13.1 °F 30% 30.20 in 10.0 mi North 10.4 mph - N/A   Clear
8:35 PM 40.3 °F 32.6 °F 18.3 °F 41% 30.21 in 10.0 mi NNE 13.8 mph - N/A   Clear
8:55 PM 38.3 °F 31.4 °F 18.9 °F 46% 30.23 in 10.0 mi North 10.4 mph - N/A   Clear
9:15 PM 36.3 °F 30.1 °F 18.9 °F 49% 30.24 in 10.0 mi NNE 8.1 mph - N/A   Clear
9:35 PM 33.8 °F 27.0 °F 18.7 °F 54% 30.25 in 10.0 mi NNE 8.1 mph - N/A   Clear
9:55 PM 34.3 °F 27.7 °F 19.4 °F 54% 30.26 in 10.0 mi North 8.1 mph - N/A   Clear
10:15 PM 32.0 °F 24.2 °F 19.4 °F 60% 30.26 in 10.0 mi North 9.2 mph - N/A   Clear
10:35 PM 32.4 °F 24.0 °F 21.9 °F 65% 30.28 in 10.0 mi NNE 10.4 mph - N/A   Clear
10:55 PM 31.8 °F 24.6 °F 23.7 °F 72% 30.29 in 10.0 mi NNE 8.1 mph - N/A   Clear
11:15 PM 30.2 °F 22.6 °F 24.3 °F 79% 30.30 in 10.0 mi North 8.1 mph - N/A   Clear
11:35 PM 28.8 °F 23.7 °F 24.3 °F 83% 30.31 in 10.0 mi North 4.6 mph - N/A   Clear
11:55 PM 27.5 °F 20.2 °F 23.4 °F 84% 30.32 in 10.0 mi North 6.9 mph - N/A   Clear